• Join FlightAware (Why Join?)
  • Login
  • US Flag 
04:09AM EDT


 

Airport Tracker/Info


-or-


 

Live Flight TrackerFlight Track Log ✈ GLA61C ✈ 27-Apr-2013 ✈ KCEZ - KDEN

Flight Track Log - Related Links

Times and Time Zones

All times are in EDT time to prevent confusion due to time zone crossing. See the GLA61C flight status page for this flight to view local times or setup timezone preferences in your user account.

Time Position Orientation Groundspeed Altitude Reporting Facility
EDT Latitude Longitude Course Direction KTS MPH feet Rate Location/Type
08:41AM 37.3500 -108.5847 48° Northeast 140 161 8,600  Level Denver Center
08:42AM 37.3917 -108.5419 39° Northeast 168 193 10,500 1,800 Climbing Denver Center
08:43AM 37.5362 -108.2941 46° Northeast  Level FlightAware Approximate
08:43AM 37.4292 -108.5047 38° Northeast 175 201 12,300  Level Denver Center
08:44AM 37.5849 -108.2311 48° Northeast  Level FlightAware Approximate
08:44AM 37.4647 -108.4611 44° Northeast 180 207 14,000  Level Denver Center
08:45AM 37.6320 -108.1661 48° Northeast  Level FlightAware Approximate
08:45AM 37.4997 -108.4103 49° Northeast 188 216 15,500  Level Denver Center
08:46AM 37.6791 -108.1011 48° Northeast  Level FlightAware Approximate
08:46AM 37.5419 -108.3500 49° Northeast 201 231 17,100  Level Denver Center
08:47AM 37.5761 -108.2933 53° Northeast 208 239 18,100 1,020 Climbing Denver Center
08:48AM 37.6131 -108.2425 47° Northeast 207 238 19,200 1,080 Climbing Denver Center
08:49AM 37.6561 -108.1803 49° Northeast 209 241 20,300 960 Climbing Denver Center
08:50AM 37.6928 -108.1236 51° Northeast 214 246 21,200 900 Climbing Denver Center
08:51AM 37.7303 -108.0692 49° Northeast 215 247 22,200 840 Climbing Denver Center
08:52AM 37.7769 -108.0128 44° Northeast 211 243 23,000 660 Climbing Denver Center
08:53AM 37.8183 -107.9619 44° Northeast 215 247 23,600 540 Climbing Denver Center
08:54AM 37.8742 -107.8894 46° Northeast 224 258 24,300 540 Climbing Denver Center
08:55AM 37.9128 -107.8308 50° Northeast 227 261 24,900 300 Climbing Denver Center
08:56AM 37.9572 -107.7739 45° Northeast 233 268 25,000  Climbing Denver Center
08:57AM 38.0081 -107.6997 49° Northeast 247 284 25,000  Level Denver Center
08:58AM 38.0547 -107.6344 48° Northeast 257 296 25,000  Level Denver Center
08:59AM 38.1042 -107.5583 50° Northeast 266 306 25,000  Level Denver Center
09:00AM 38.1489 -107.4850 52° Northeast 271 312 25,000  Level Denver Center
09:01AM 38.1958 -107.4133 50° Northeast 273 314 25,000  Level Denver Center
09:03AM 38.2519 -107.3358 47° Northeast 268 308 25,000  Level Denver Center
09:04AM 38.2986 -107.2672 49° Northeast 268 308 25,000  Level Denver Center
09:05AM 38.3436 -107.1956 51° Northeast 269 310 25,000  Level Denver Center
09:06AM 38.3892 -107.1350 46° Northeast 264 304 25,000  Level Denver Center
09:07AM 38.4375 -107.0606 50° Northeast 269 310 25,000  Level Denver Center
09:08AM 38.4858 -106.9678 56° Northeast 268 308 25,000  Level Denver Center
09:09AM 38.5072 -106.8761 73° East 271 312 25,000  Level Denver Center
09:10AM 38.5342 -106.7850 69° East 272 313 25,000  Level Denver Center
09:11AM 38.5661 -106.6978 65° Northeast 272 313 25,000  Level Denver Center
09:12AM 38.5919 -106.6092 70° East 269 310 25,000  Level Denver Center
09:13AM 38.6147 -106.5161 73° East 274 315 25,000  Level Denver Center
09:14AM 38.6367 -106.4269 72° East 264 304 25,100  Climbing Denver Center
09:15AM 38.6675 -106.3397 66° East 269 310 25,100 -60 Level Denver Center
09:16AM 38.6933 -106.2481 70° East 272 313 25,000 -240 Descending Denver Center
09:17AM 38.7331 -106.1589 60° Northeast 269 310 24,700 -780 Descending Denver Center
09:18AM 38.7717 -106.0814 57° Northeast 269 310 23,500 -1,080 Descending Denver Center
09:19AM 38.8100 -106.0047 57° Northeast 268 308 22,600 -1,380 Descending Denver Center
09:20AM 38.8542 -105.9158 57° Northeast 265 305 20,800 -1,560 Descending Denver Center
09:21AM 38.8953 -105.8458 53° Northeast 260 299 19,200 -1,440 Descending Denver Center
09:22AM 38.9522 -105.7564 51° Northeast 251 289 17,700 -960 Descending Denver Center
09:23AM 38.9978 -105.6858 50° Northeast 264 304 17,300 -660 Descending Denver Center
09:24AM 39.0472 -105.6147 48° Northeast 274 315 16,400 -720 Descending Denver Center
09:25AM 39.0978 -105.5311 52° Northeast 267 307 15,900 -240 Descending Denver Center
09:26AM 39.1383 -105.4703 49° Northeast 257 296 16,000 -60 Climbing Denver Center
09:27AM 39.1914 -105.3986 46° Northeast 255 293 15,800 -480 Descending Denver Center
09:28AM 39.2425 -105.3325 45° Northeast 262 302 15,100 -420 Descending Denver Center
09:29AM 39.2906 -105.2686 46° Northeast 251 289 15,000 -300 Descending Denver Center
09:30AM 39.3431 -105.2075 42° Northeast 253 291 14,600 -720 Descending Denver Center
09:31AM 39.4000 -105.1417 42° Northeast 254 292 13,600 -540 Descending Denver Center
09:33AM 39.5000 -105.0333 40° Northeast 257 296 13,100 -240 Descending Denver TRACON
09:34AM 39.5667 -104.9667 38° Northeast 262 302 13,000 -60 Descending Denver TRACON
09:35AM 39.6167 -104.9167 38° Northeast 260 299 13,000 -60 Level Denver TRACON
09:36AM 39.6833 -104.8833 21° North 259 298 12,900 -420 Descending Denver TRACON
09:37AM 39.7500 -104.8500 21° North 251 289 12,200 -720 Descending Denver TRACON
09:37AM 39.7744 -104.8528 355° North 249 287 12,000 -1,020 Descending Denver Center
09:38AM 39.8406 -104.8519 North 238 274 10,900 -600 Descending Denver Center
09:39AM 39.9044 -104.8497 North 227 261 10,900 -360 Level Denver Center
09:40AM 39.9647 -104.8403 North 218 251 10,200 -1,380 Descending Denver Center
09:41AM 40.0011 -104.7919 45° Northeast 226 260 8,200 -1,500 Descending Denver Center
09:42AM 39.9800 -104.7092 108° East 247 284 7,200 -1,200 Descending Denver Center
09:43AM 39.9158 -104.6958 171° South 205 236 5,800 -1,020 Descending Denver Center
09:44AM 39.8769 -104.6967 181° South 132 152 5,200 -600 Descending Denver Center
09:46AM 39.8617 -104.6732 130° Southeast  Level Estimated
09:53AM 39.8617 -104.6732 142° Southeast  Level Estimated